Aérodrome :
LOGIN :

S'inscrire | Disclaimer

   EN    FR    IT 

 










Légende :    VFR   VFR Marginal   IFR   IFR Intensif   IFR Très Intensif
Visi : 
Plafond : 
>= 8 km
>= 3000ft
5 à 8 km
1000 à 3000 ft
1500m à 5 km
500 à 1000 ft
800 à 1500m
200 à 500 ft
< 800m
< 200 ft
Symboles :   Orages  Brouillard  Fortes neiges  Fortes précipitations  Vent > 20 kt
SIGMETs :   Divers  Orages  Givrage  Turbulence  Onde Orograph.  Cendres Volcan.






- Altitude de l'aérodrome : 204 ft
- Code IATA : AGF


LFBA - Agen

DERNIER METAR :
  • 241200Z AUTO 09004KT 060V130 0350 R29/0550U FG VV/// 06/05 Q1026 BECMG 9999 NSW BKN008

METARs EXPIRÉS :
  • 241130Z AUTO 09005KT 040V120 0350 0300 R29/0400N FG VV/// 05/05 Q1027 BECMG 9999 NSW BKN008
  • 241100Z AUTO 08005KT 060V130 0300 R29/0350N FG VV/// 05/05 Q1027 BECMG 9999 NSW BKN008
  • 241030Z AUTO 08005KT 050V110 0250 R29/0300N FG VV/// 05/04 Q1028 BECMG 9999 NSW BKN008
  • 241000Z AUTO 09004KT 0300 0250 R29/0325N FG VV/// 04/04 Q1028 BECMG 1500 BR OVC004
  • 240930Z AUTO 09005KT 0300 0250 R29/0325N FG VV/// 04/03 Q1028 BECMG 1500 BR OVC004

TAF TAF LFBA
Valide du 24 à 12h jusqu'au 24 à 21h UTC


241100Z 2412/2421 VRB02KT 1500 BR OVC004
BECMG 2412/2414 9999 NSW BKN008
BECMG 2414/2416 SCT008
TEMPO 2418/2420 1500 MIFG NSC



MET'MAP, la Météo Aéronautique d'un coup d'oeil ! - Copyright ORBIFLY Décembre 2007 - Disclaimer

ORBIFLY MET'MAP TEAM :

Programmation & Développement : Alexandra Zaïnal
Sur une idée originale de : Baudouin d'Aumeries
Assistance à la programmation : Marc-Olivier Méhu
Soutien technique & logistique : Manuel Goepfert

Contact : metmap@orbifly.com




SOURCES & CREDITS :

   NOAA